Time;durP1;ratioP1;P1;durP2;ratioP2;P2;SDS_P1;SDS_P2;PMS_P1;PMS_P2;Temp;Humidity;BMP_temperature;BMP_pressure;BME280_temperature;BME280_humidity;BME280_pressure;Samples;Min_cycle;Max_cycle;Signal;HPM_P1;HPM_P2
2022/12/24 00:01:40;;;;;;;82.57;27.40;;;7.00;99.90;;;;;;5126811;27;20064;-51
2022/12/24 00:04:06;;;;;;;92.32;29.08;;;7.00;99.90;;;;;;5134993;27;20117;-52
2022/12/24 00:06:32;;;;;;;65.82;25.55;;;7.00;99.90;;;;;;5136290;27;20365;-52
2022/12/24 00:08:57;;;;;;;130.00;31.98;;;6.80;99.90;;;;;;5122012;27;20041;-51
2022/12/24 00:11:23;;;;;;;108.60;29.25;;;7.00;99.90;;;;;;5105675;27;20055;-51
2022/12/24 00:13:49;;;;;;;175.63;34.33;;;6.90;99.90;;;;;;5117301;27;20477;-48
2022/12/24 00:16:14;;;;;;;277.20;42.25;;;7.10;99.90;;;;;;5115698;27;20424;-52
2022/12/24 00:18:40;;;;;;;206.05;38.15;;;7.10;99.90;;;;;;5114053;27;20071;-52
2022/12/24 00:21:06;;;;;;;121.20;30.98;;;7.10;99.90;;;;;;5115722;27;20043;-51
2022/12/24 00:23:31;;;;;;;148.18;33.72;;;7.00;99.90;;;;;;5096212;28;20090;-50
2022/12/24 00:25:57;;;;;;;98.93;28.88;;;6.80;99.90;;;;;;5115753;27;20131;-50
2022/12/24 00:28:23;;;;;;;100.55;29.20;;;6.80;99.90;;;;;;5114647;27;20063;-51
2022/12/24 00:30:48;;;;;;;81.55;28.00;;;6.80;99.90;;;;;;5114862;27;20533;-48
2022/12/24 00:33:14;;;;;;;125.70;31.27;;;7.10;99.90;;;;;;5095722;28;20083;-50
2022/12/24 00:35:40;;;;;;;137.70;32.08;;;6.90;99.90;;;;;;5114994;27;20051;-48
2022/12/24 00:38:07;;;;;;;146.27;33.17;;;7.10;99.90;;;;;;5115158;27;20130;-51
2022/12/24 00:40:33;;;;;;;254.05;39.80;;;7.00;99.90;;;;;;5114671;27;20047;-47
2022/12/24 00:42:58;;;;;;;167.32;35.17;;;6.80;99.90;;;;;;5115190;27;20107;-51
2022/12/24 00:45:26;;;;;;;147.55;34.53;;;7.10;99.90;;;;;;5095432;28;20055;-50
2022/12/24 00:47:52;;;;;;;165.02;35.63;;;6.90;99.90;;;;;;5128423;27;20477;-50
2022/12/24 00:50:18;;;;;;;242.43;40.67;;;7.10;99.90;;;;;;5115308;27;20043;-52
2022/12/24 00:52:43;;;;;;;189.88;38.17;;;7.10;99.90;;;;;;5116936;27;20053;-50
2022/12/24 00:55:09;;;;;;;171.73;37.22;;;7.10;99.90;;;;;;5127599;27;20355;-49
2022/12/24 00:57:35;;;;;;;169.00;35.67;;;6.80;99.90;;;;;;5121462;27;20043;-49
2022/12/24 01:00:00;;;;;;;176.50;36.42;;;6.90;99.90;;;;;;5118269;27;20454;-50
2022/12/24 01:02:26;;;;;;;136.75;32.05;;;6.90;99.90;;;;;;5100005;27;20055;-49
2022/12/24 01:05:10;;;;;;;139.05;34.22;;;7.00;99.90;;;;;;5083211;27;20065;-49
2022/12/24 01:07:38;;;;;;;129.45;32.15;;;7.00;99.90;;;;;;5118410;27;20491;-48
2022/12/24 01:10:05;;;;;;;133.10;32.75;;;6.80;99.90;;;;;;5118447;27;20823;-52
2022/12/24 01:12:30;;;;;;;113.50;30.95;;;6.80;99.90;;;;;;5129199;27;20520;-51
2022/12/24 01:14:56;;;;;;;96.00;29.20;;;7.00;99.90;;;;;;5100215;27;20042;-50
2022/12/24 01:17:22;;;;;;;111.93;32.20;;;7.00;99.90;;;;;;5118747;27;20031;-51
2022/12/24 01:19:47;;;;;;;97.65;30.42;;;6.90;99.90;;;;;;5117835;27;20039;-51
2022/12/24 01:22:13;;;;;;;95.30;29.13;;;7.00;99.90;;;;;;5118547;27;20084;-51
2022/12/24 01:24:40;;;;;;;95.13;30.48;;;7.00;99.90;;;;;;5099526;27;20104;-50
2022/12/24 01:27:06;;;;;;;71.38;28.58;;;6.90;99.90;;;;;;5118148;27;20043;-48
2022/12/24 01:29:31;;;;;;;74.55;27.10;;;7.00;99.90;;;;;;5117718;27;20493;-51
2022/12/24 01:31:57;;;;;;;77.05;29.38;;;6.70;99.90;;;;;;5118459;27;20558;-50
2022/12/24 01:34:23;;;;;;;76.03;28.40;;;6.70;99.90;;;;;;5117036;27;20119;-52
2022/12/24 01:36:48;;;;;;;89.78;30.83;;;6.80;99.90;;;;;;5117720;27;20473;-48
2022/12/24 01:39:14;;;;;;;81.00;30.33;;;7.00;99.90;;;;;;5117319;27;20065;-50
2022/12/24 01:44:31;;;;;;;65.60;28.15;;;7.00;99.90;;;;;;5117910;27;20455;-52
2022/12/24 01:47:17;;;;;;;55.47;21.50;;;6.90;99.90;;;;;;5128824;27;20444;-52
2022/12/24 01:49:52;;;;;;;81.10;29.23;;;7.20;99.90;;;;;;5124033;27;20047;-53
2022/12/24 01:52:31;;;;;;;75.20;29.00;;;7.20;99.90;;;;;;5137055;27;20050;-53
2022/12/24 01:55:06;;;;;;;64.65;27.02;;;7.10;99.90;;;;;;5125170;27;20039;-54
2022/12/24 01:57:51;;;;;;;61.63;27.08;;;7.30;99.90;;;;;;5121848;27;20043;-53
2022/12/24 02:00:17;;;;;;;65.30;26.80;;;7.30;99.90;;;;;;5138285;27;20598;-52
2022/12/24 02:02:46;;;;;;;53.65;25.58;;;7.10;99.90;;;;;;5124868;27;20064;-48
2022/12/24 02:05:22;;;;;;;56.30;26.15;;;7.30;99.90;;;;;;5104657;27;20050;-49
2022/12/24 02:07:48;;;;;;;55.22;24.13;;;7.20;99.90;;;;;;5118163;27;20091;-53
2022/12/24 02:10:15;;;;;;;59.13;24.98;;;7.30;99.90;;;;;;5117247;27;20115;-53
2022/12/24 02:12:43;;;;;;;56.53;24.38;;;7.20;99.90;;;;;;5117765;27;20091;-50
2022/12/24 02:15:12;;;;;;;57.78;24.25;;;7.20;99.90;;;;;;5117309;27;20079;-52
2022/12/24 02:17:54;;;;;;;67.03;25.80;;;7.20;99.90;;;;;;5117598;27;20039;-51
2022/12/24 02:20:51;;;;;;;60.80;23.42;;;7.30;99.90;;;;;;5116187;27;20203;-55
2022/12/24 02:23:56;;;;;;;61.67;24.33;;;7.30;99.90;;;;;;5116273;27;20073;-54
2022/12/24 02:26:37;;;;;;;61.13;23.70;;;7.50;99.90;;;;;;5132703;27;20444;-52
2022/12/24 02:29:40;;;;;;;52.28;21.83;;;7.30;99.90;;;;;;5127039;27;20061;-51
2022/12/24 02:32:23;;;;;;;52.55;21.08;;;7.70;99.90;;;;;;5117161;27;20580;-59
2022/12/24 02:35:15;;;;;;;59.47;22.88;;;7.60;99.90;;;;;;5117686;27;20417;-52
2022/12/24 02:37:53;;;;;;;51.33;19.98;;;7.70;99.90;;;;;;5116461;27;20053;-52
2022/12/24 02:40:26;;;;;;;40.28;17.85;;;7.70;99.90;;;;;;5116423;27;20533;-52
2022/12/24 02:43:01;;;;;;;42.20;17.17;;;7.70;99.90;;;;;;5116877;27;20084;-50
2022/12/24 02:45:32;;;;;;;50.63;17.08;;;7.80;99.90;;;;;;5117047;27;20043;-52
2022/12/24 02:47:58;;;;;;;47.80;16.20;;;7.60;99.90;;;;;;5136034;27;20524;-51
2022/12/24 02:50:25;;;;;;;46.70;16.95;;;7.90;99.90;;;;;;5118411;27;20129;-51
2022/12/24 02:52:51;;;;;;;47.78;14.63;;;7.60;99.90;;;;;;5112563;27;20526;-50
2022/12/24 02:55:29;;;;;;;46.10;14.73;;;7.90;99.90;;;;;;5126323;27;20039;-53
2022/12/24 02:58:06;;;;;;;42.90;13.25;;;7.70;99.90;;;;;;5117524;27;20039;-52
2022/12/24 03:00:57;;;;;;;39.17;12.60;;;7.90;99.90;;;;;;5132828;27;20061;-54
2022/12/24 03:03:55;;;;;;;51.63;11.32;;;7.70;99.90;;;;;;5136547;27;20047;-52
2022/12/24 03:06:30;;;;;;;53.80;8.68;;;7.60;99.90;;;;;;5136252;27;20053;-51
2022/12/24 03:09:07;;;;;;;44.63;9.38;;;7.90;99.90;;;;;;5131766;27;20035;-53
2022/12/24 03:11:35;;;;;;;41.90;8.50;;;7.60;99.90;;;;;;5117467;27;20043;-51
2022/12/24 03:14:02;;;;;;;49.10;8.70;;;7.70;99.90;;;;;;5122859;27;20051;-54
2022/12/24 03:16:27;;;;;;;46.97;8.00;;;7.60;99.90;;;;;;5136680;27;20555;-52
2022/12/24 03:18:55;;;;;;;56.35;8.30;;;7.60;99.90;;;;;;5136891;27;20042;-53
2022/12/24 03:21:29;;;;;;;50.33;9.05;;;7.90;99.90;;;;;;5135750;27;20827;-52
2022/12/24 03:23:55;;;;;;;55.70;8.52;;;7.70;99.90;;;;;;5124339;27;20047;-53
2022/12/24 03:26:23;;;;;;;53.95;7.97;;;7.60;99.90;;;;;;5102279;27;20054;-51
2022/12/24 03:28:49;;;;;;;46.47;7.72;;;7.70;99.90;;;;;;5115312;27;20591;-49
2022/12/24 03:31:15;;;;;;;36.25;6.07;;;7.80;99.90;;;;;;5115888;27;20043;-50
2022/12/24 03:33:41;;;;;;;52.97;7.57;;;7.70;99.90;;;;;;5116123;27;20556;-49
2022/12/24 03:36:08;;;;;;;51.22;8.65;;;8.00;99.90;;;;;;5116406;27;20051;-53
2022/12/24 03:38:33;;;;;;;44.70;6.63;;;7.80;99.90;;;;;;5115646;27;20418;-50
2022/12/24 03:41:01;;;;;;;48.47;6.68;;;8.00;99.90;;;;;;5117005;27;20043;-53
2022/12/24 03:43:26;;;;;;;43.47;7.05;;;7.80;99.90;;;;;;5116628;27;20051;-48
2022/12/24 03:45:52;;;;;;;48.35;9.07;;;7.80;99.90;;;;;;5131942;27;20053;-51
2022/12/24 03:48:17;;;;;;;57.55;7.65;;;7.70;99.90;;;;;;5128725;27;20031;-53
2022/12/24 03:50:43;;;;;;;47.22;7.85;;;7.70;99.90;;;;;;5116525;27;20076;-53
2022/12/24 03:53:09;;;;;;;48.53;7.60;;;7.90;99.90;;;;;;5105414;27;20496;-52
2022/12/24 03:55:34;;;;;;;53.95;7.85;;;7.70;99.90;;;;;;5124642;27;20068;-49
2022/12/24 03:58:00;;;;;;;50.28;7.90;;;7.90;99.90;;;;;;5124070;27;20481;-51
2022/12/24 04:00:26;;;;;;;50.22;7.80;;;7.60;99.90;;;;;;5122117;27;20443;-51
2022/12/24 04:02:52;;;;;;;57.40;7.85;;;7.60;99.90;;;;;;5116119;27;20035;-50
2022/12/24 04:05:19;;;;;;;48.67;6.78;;;7.50;99.90;;;;;;5115607;27;20058;-47
2022/12/24 04:07:45;;;;;;;48.10;7.30;;;7.70;99.90;;;;;;5123743;27;20412;-51
2022/12/24 04:10:12;;;;;;;47.60;7.82;;;7.40;99.90;;;;;;5134389;27;20137;-50
2022/12/24 04:12:38;;;;;;;47.95;9.27;;;7.50;99.90;;;;;;5117308;27;20051;-50
2022/12/24 04:15:04;;;;;;;58.47;8.95;;;7.30;99.90;;;;;;5115283;27;20054;-53
2022/12/24 04:17:30;;;;;;;49.55;7.95;;;7.30;99.90;;;;;;5115879;27;20051;-52
2022/12/24 04:19:56;;;;;;;52.78;8.05;;;7.30;99.90;;;;;;5115448;27;20586;-51
2022/12/24 04:22:22;;;;;;;63.47;8.05;;;7.40;99.90;;;;;;5116063;27;20490;-51
2022/12/24 04:24:47;;;;;;;59.72;7.50;;;7.60;99.90;;;;;;5114975;27;20054;-51
2022/12/24 04:27:14;;;;;;;51.15;7.47;;;7.60;99.90;;;;;;5116299;27;20047;-48
2022/12/24 04:29:40;;;;;;;61.42;9.32;;;7.60;99.90;;;;;;5119018;27;20181;-50
2022/12/24 04:32:05;;;;;;;46.58;8.65;;;7.60;99.90;;;;;;5119954;27;20446;-50
2022/12/24 04:34:31;;;;;;;49.63;9.05;;;7.70;99.90;;;;;;5118717;27;20097;-52
2022/12/24 04:36:57;;;;;;;43.60;8.55;;;7.60;99.90;;;;;;5119236;27;20039;-52
2022/12/24 04:39:22;;;;;;;69.30;9.00;;;7.70;99.90;;;;;;5082466;27;20126;-50
2022/12/24 04:41:48;;;;;;;63.42;8.77;;;7.70;99.90;;;;;;5119075;27;20282;-47
2022/12/24 04:44:14;;;;;;;55.17;8.70;;;7.60;99.90;;;;;;5118777;27;20343;-54
2022/12/24 04:46:41;;;;;;;63.08;10.38;;;7.30;99.90;;;;;;5127747;27;20548;-52
2022/12/24 04:49:07;;;;;;;61.15;8.35;;;7.40;99.90;;;;;;5124178;27;20481;-49
2022/12/24 04:51:33;;;;;;;54.60;8.23;;;7.30;99.90;;;;;;5119271;27;20457;-49
2022/12/24 04:53:59;;;;;;;60.67;8.73;;;7.30;99.90;;;;;;5120189;27;20039;-52
2022/12/24 04:56:28;;;;;;;58.05;8.45;;;7.30;99.90;;;;;;5137368;27;20042;-49
2022/12/24 04:58:54;;;;;;;62.75;9.93;;;7.30;99.90;;;;;;5122960;27;20057;-51
2022/12/24 05:01:26;;;;;;;57.17;7.72;;;7.30;99.90;;;;;;5118837;27;20914;-47
2022/12/24 05:03:52;;;;;;;61.90;8.68;;;7.40;99.90;;;;;;5118359;27;20239;-51
2022/12/24 05:06:20;;;;;;;61.25;8.20;;;7.50;99.90;;;;;;5118944;27;20540;-48
2022/12/24 05:08:47;;;;;;;50.38;8.20;;;7.30;99.90;;;;;;5117645;27;20499;-47
2022/12/24 05:11:14;;;;;;;59.67;8.80;;;7.20;99.90;;;;;;5118632;27;20154;-52
2022/12/24 05:13:41;;;;;;;57.33;8.18;;;7.50;99.90;;;;;;5131800;27;20150;-49
2022/12/24 05:16:07;;;;;;;53.90;7.88;;;7.40;99.90;;;;;;5118522;27;20915;-53
2022/12/24 05:18:32;;;;;;;63.85;8.90;;;7.40;99.90;;;;;;5117662;27;20067;-51
2022/12/24 05:20:58;;;;;;;60.03;8.45;;;7.50;99.90;;;;;;5129694;27;20154;-51
2022/12/24 05:26:34;;;;;;;63.15;8.70;;;7.30;99.90;;;;;;5117889;27;20062;-50
2022/12/24 05:29:01;;;;;;;63.38;8.23;;;7.20;99.90;;;;;;5128097;27;20114;-47
2022/12/24 05:31:29;;;;;;;72.97;10.48;;;7.40;99.90;;;;;;5106915;27;20858;-49
2022/12/24 05:33:55;;;;;;;66.78;9.23;;;7.40;99.90;;;;;;5120660;27;20095;-50
2022/12/24 05:36:22;;;;;;;49.33;7.78;;;7.20;99.90;;;;;;5135380;27;20043;-50
2022/12/24 05:38:48;;;;;;;52.80;8.80;;;7.30;99.90;;;;;;5116440;27;20045;-51
2022/12/24 05:41:14;;;;;;;64.80;8.30;;;7.00;99.90;;;;;;5085667;27;20484;-53
2022/12/24 05:43:39;;;;;;;48.80;8.45;;;7.30;99.90;;;;;;5126812;27;20055;-50
2022/12/24 05:46:08;;;;;;;124.15;9.35;;;7.30;99.90;;;;;;5120538;27;20053;-46
2022/12/24 05:48:34;;;;;;;59.38;7.88;;;7.10;99.90;;;;;;5138131;27;20047;-50
2022/12/24 05:51:05;;;;;;;53.47;7.70;;;7.30;99.90;;;;;;5115809;27;20063;-52
2022/12/24 05:53:31;;;;;;;60.10;8.80;;;7.10;99.90;;;;;;5117445;27;20123;-51
2022/12/24 05:56:10;;;;;;;67.97;8.85;;;7.20;99.90;;;;;;5121792;27;20047;-47
2022/12/24 05:58:36;;;;;;;50.17;7.78;;;7.20;99.90;;;;;;5117813;27;20039;-51
2022/12/24 06:01:04;;;;;;;60.80;8.80;;;7.10;99.90;;;;;;5105630;27;20445;-51
2022/12/24 06:03:30;;;;;;;54.83;7.45;;;7.20;99.90;;;;;;5138224;27;20078;-53
2022/12/24 06:06:11;;;;;;;68.95;9.40;;;7.20;99.90;;;;;;5124982;27;20126;-52
2022/12/24 06:08:38;;;;;;;67.35;8.90;;;7.30;99.90;;;;;;5121369;27;20389;-52
2022/12/24 06:11:06;;;;;;;61.08;7.57;;;7.40;99.90;;;;;;5100046;27;20451;-50
2022/12/24 06:13:34;;;;;;;56.13;9.15;;;7.10;99.90;;;;;;5098531;27;20126;-49
2022/12/24 06:16:01;;;;;;;59.70;8.88;;;7.30;99.90;;;;;;5118389;27;20043;-54
2022/12/24 06:18:31;;;;;;;59.03;9.15;;;7.10;99.90;;;;;;5120759;27;20644;-49
2022/12/24 06:20:58;;;;;;;62.60;9.88;;;7.30;99.90;;;;;;5139160;27;20039;-49
2022/12/24 06:23:25;;;;;;;68.75;9.65;;;7.00;99.90;;;;;;5134092;27;20572;-49
2022/12/24 06:25:50;;;;;;;63.72;10.48;;;7.40;99.90;;;;;;5128803;27;20054;-49
2022/12/24 06:28:17;;;;;;;52.75;8.95;;;7.10;99.90;;;;;;5133482;27;20445;-50
2022/12/24 06:30:47;;;;;;;76.25;9.95;;;7.20;99.90;;;;;;5128889;27;20451;-49
2022/12/24 06:33:13;;;;;;;70.07;9.30;;;7.30;99.90;;;;;;5118978;27;20043;-47
2022/12/24 06:35:39;;;;;;;69.70;9.27;;;7.00;99.90;;;;;;5128385;27;20045;-47
2022/12/24 06:38:04;;;;;;;74.65;8.85;;;7.10;99.90;;;;;;5118621;27;20051;-53
2022/12/24 06:40:30;;;;;;;65.82;9.85;;;7.20;99.90;;;;;;5129210;27;20058;-54
2022/12/24 06:42:55;;;;;;;63.03;9.45;;;7.00;99.90;;;;;;5132228;27;20043;-49
2022/12/24 06:45:21;;;;;;;69.13;10.13;;;7.00;99.90;;;;;;5128772;27;20042;-48
2022/12/24 06:47:47;;;;;;;70.40;8.93;;;7.20;99.90;;;;;;5133485;27;20039;-46
2022/12/24 06:50:12;;;;;;;69.63;9.95;;;7.00;99.90;;;;;;5127122;27;20122;-47
2022/12/24 06:52:38;;;;;;;63.50;10.02;;;7.20;99.90;;;;;;5133668;27;20126;-49
2022/12/24 06:55:04;;;;;;;72.07;9.73;;;7.30;99.90;;;;;;5118669;27;20070;-51
2022/12/24 06:57:33;;;;;;;49.88;8.60;;;7.40;99.90;;;;;;5116414;27;20043;-53
2022/12/24 06:59:59;;;;;;;64.85;9.30;;;7.30;99.90;;;;;;5127072;27;20047;-47
2022/12/24 07:02:25;;;;;;;58.83;9.57;;;7.50;99.90;;;;;;5102219;27;20069;-53
2022/12/24 07:04:50;;;;;;;70.28;8.32;;;7.40;99.90;;;;;;5125787;27;20568;-52
2022/12/24 07:07:16;;;;;;;52.45;8.70;;;7.50;99.90;;;;;;5120658;27;20052;-52
2022/12/24 07:09:42;;;;;;;65.20;9.93;;;7.40;99.90;;;;;;5126191;27;20043;-46
2022/12/24 07:12:07;;;;;;;67.85;10.13;;;7.40;99.90;;;;;;5122603;27;20133;-49
2022/12/24 07:14:33;;;;;;;74.43;9.38;;;7.30;99.90;;;;;;5137386;27;20146;-49
2022/12/24 07:16:59;;;;;;;66.05;10.02;;;7.40;99.90;;;;;;5133594;27;20476;-52
2022/12/24 07:19:25;;;;;;;64.72;9.57;;;7.20;99.90;;;;;;5097531;27;20042;-53
2022/12/24 07:21:51;;;;;;;68.47;9.13;;;7.40;99.90;;;;;;5081190;27;20456;-52
2022/12/24 07:24:16;;;;;;;63.17;9.57;;;7.40;99.90;;;;;;5115937;27;20050;-48
2022/12/24 07:26:42;;;;;;;69.97;10.35;;;7.20;99.90;;;;;;5134192;27;20035;-49
2022/12/24 07:29:08;;;;;;;70.20;10.70;;;7.10;99.90;;;;;;5136089;27;20057;-47
2022/12/24 07:31:34;;;;;;;65.45;9.07;;;7.00;99.90;;;;;;5118924;27;20047;-48
2022/12/24 07:33:59;;;;;;;68.38;8.70;;;7.00;99.90;;;;;;5127494;27;20039;-53
2022/12/24 07:36:27;;;;;;;58.00;9.25;;;7.10;99.90;;;;;;5118578;27;20057;-49
2022/12/24 07:38:53;;;;;;;76.18;10.02;;;6.90;99.90;;;;;;5108363;27;20426;-48
2022/12/24 07:41:18;;;;;;;60.80;8.98;;;6.80;99.90;;;;;;5131986;27;20113;-52
2022/12/24 07:43:44;;;;;;;65.95;9.95;;;7.10;99.90;;;;;;5091413;27;20130;-52
2022/12/24 07:46:10;;;;;;;61.28;8.88;;;7.00;99.90;;;;;;5130891;27;20074;-51
2022/12/24 07:48:36;;;;;;;62.92;9.07;;;7.10;99.90;;;;;;5114841;27;20031;-50
2022/12/24 07:51:02;;;;;;;65.97;8.95;;;7.00;99.90;;;;;;5097032;27;20049;-51
2022/12/24 07:53:28;;;;;;;69.13;8.73;;;7.00;99.90;;;;;;5116757;27;20027;-49
2022/12/24 07:55:54;;;;;;;68.75;9.70;;;7.00;99.90;;;;;;5120477;27;20120;-50
2022/12/24 07:58:21;;;;;;;74.13;10.85;;;7.20;99.90;;;;;;5122529;27;20069;-51
2022/12/24 08:00:46;;;;;;;54.75;9.15;;;7.00;99.90;;;;;;5099250;27;20195;-48
2022/12/24 08:03:17;;;;;;;62.83;9.45;;;7.30;99.90;;;;;;5114800;27;20035;-48
2022/12/24 08:05:43;;;;;;;60.95;9.75;;;7.20;99.90;;;;;;5115626;27;20059;-47
2022/12/24 08:08:08;;;;;;;62.40;9.02;;;7.30;99.90;;;;;;5114948;27;20117;-46
2022/12/24 08:10:37;;;;;;;63.75;10.23;;;7.30;99.90;;;;;;5115804;27;20540;-49
2022/12/24 08:13:02;;;;;;;64.38;10.27;;;7.10;99.90;;;;;;5117254;27;20540;-49
2022/12/24 08:15:28;;;;;;;68.15;9.50;;;7.40;99.90;;;;;;5115446;27;20046;-55
2022/12/24 08:17:53;;;;;;;66.47;9.18;;;7.40;99.90;;;;;;5114918;27;20464;-50
2022/12/24 08:20:19;;;;;;;64.18;10.48;;;7.50;99.90;;;;;;5116929;27;20043;-52
2022/12/24 08:22:45;;;;;;;50.35;8.93;;;7.40;99.90;;;;;;5115378;27;20210;-48
2022/12/24 08:25:10;;;;;;;62.08;9.57;;;7.30;99.90;;;;;;5115596;27;20062;-51
2022/12/24 08:27:36;;;;;;;61.40;9.07;;;7.30;99.90;;;;;;5110140;27;20047;-52
2022/12/24 08:30:03;;;;;;;56.20;9.93;;;7.50;99.90;;;;;;5107706;27;20047;-52
2022/12/24 08:32:29;;;;;;;57.28;11.38;;;7.40;99.90;;;;;;5113681;27;20477;-50
2022/12/24 08:34:55;;;;;;;60.10;9.68;;;7.60;99.90;;;;;;5110279;28;20051;-51
2022/12/24 08:37:20;;;;;;;64.13;10.10;;;7.50;99.90;;;;;;5097395;28;20058;-48
2022/12/24 08:39:46;;;;;;;58.65;10.95;;;7.60;99.90;;;;;;5115408;27;20071;-51
2022/12/24 08:42:11;;;;;;;71.75;10.55;;;7.60;99.90;;;;;;5116176;27;20465;-47
2022/12/24 08:44:37;;;;;;;63.80;10.13;;;7.60;99.90;;;;;;5113674;27;20134;-53
2022/12/24 08:47:03;;;;;;;56.30;9.80;;;7.70;99.90;;;;;;5086624;27;20043;-49
2022/12/24 08:49:28;;;;;;;58.10;10.07;;;7.90;99.90;;;;;;5107221;27;20035;-47
2022/12/24 08:51:54;;;;;;;69.55;11.10;;;7.90;99.90;;;;;;5113763;27;20099;-52
2022/12/24 08:54:21;;;;;;;66.68;9.98;;;7.70;99.90;;;;;;5111635;27;20157;-50
2022/12/24 08:56:47;;;;;;;57.85;9.40;;;8.00;99.90;;;;;;5114174;27;20491;-48
2022/12/24 08:59:12;;;;;;;62.95;10.23;;;7.70;99.90;;;;;;5128043;27;20035;-51
2022/12/24 09:01:38;;;;;;;55.33;8.95;;;7.90;99.90;;;;;;5115798;27;20139;-49
2022/12/24 09:04:04;;;;;;;49.03;8.85;;;8.10;99.90;;;;;;5121975;27;20130;-50
2022/12/24 09:06:31;;;;;;;71.25;10.25;;;7.90;99.90;;;;;;5124939;27;20042;-54
2022/12/24 09:08:57;;;;;;;68.43;9.20;;;8.20;99.90;;;;;;5115333;27;20218;-50
2022/12/24 09:11:23;;;;;;;61.58;9.55;;;7.90;99.90;;;;;;5114843;27;20298;-51
2022/12/24 09:13:49;;;;;;;56.28;9.05;;;8.10;99.90;;;;;;5107241;27;20051;-48
2022/12/24 09:16:15;;;;;;;58.40;9.18;;;8.10;99.90;;;;;;5098339;27;20512;-54
2022/12/24 09:18:41;;;;;;;50.38;9.02;;;8.10;99.90;;;;;;5099155;27;20051;-51
2022/12/24 09:21:16;;;;;;;57.72;8.85;;;8.00;99.90;;;;;;5121576;27;20038;-54
2022/12/24 09:23:46;;;;;;;52.78;9.90;;;8.20;99.90;;;;;;5138457;27;20046;-50
2022/12/24 09:26:28;;;;;;;52.92;9.10;;;8.20;99.90;;;;;;5132824;27;20135;-50
2022/12/24 09:28:56;;;;;;;42.22;7.90;;;8.10;99.90;;;;;;5117816;27;20043;-50
2022/12/24 09:31:22;;;;;;;48.67;7.18;;;8.20;99.90;;;;;;5117085;27;20054;-51
2022/12/24 09:33:49;;;;;;;42.38;7.15;;;8.30;99.90;;;;;;5132106;27;20401;-52
2022/12/24 09:36:16;;;;;;;41.58;7.07;;;8.30;99.90;;;;;;5111053;27;20058;-53
2022/12/24 09:38:42;;;;;;;39.50;7.72;;;8.30;99.90;;;;;;5098995;27;20050;-53
2022/12/24 09:41:15;;;;;;;40.97;7.78;;;8.10;99.90;;;;;;5118213;27;20422;-50
2022/12/24 09:43:45;;;;;;;;;;;8.40;99.90;;;;;;5115103;27;20098;-49
2022/12/24 09:46:21;;;;;;;43.88;7.93;;;8.30;99.90;;;;;;5136381;27;19926;-49
2022/12/24 09:48:52;;;;;;;65.20;9.45;;;8.50;99.90;;;;;;5082736;27;20055;-52
2022/12/24 09:51:24;;;;;;;54.88;8.30;;;8.60;99.90;;;;;;5098468;27;20055;-52
2022/12/24 09:54:04;;;;;;;48.63;8.82;;;8.40;99.90;;;;;;5117109;27;20043;-53
2022/12/24 09:56:36;;;;;;;51.40;8.32;;;8.50;99.90;;;;;;5123642;27;20119;-53
2022/12/24 09:59:04;;;;;;;38.95;7.50;;;8.50;99.90;;;;;;5121262;27;20484;-50
2022/12/24 10:01:32;;;;;;;44.58;9.00;;;8.40;99.90;;;;;;5128541;27;20046;-51
2022/12/24 10:04:10;;;;;;;48.83;8.73;;;8.50;99.90;;;;;;5117374;27;20118;-47
2022/12/24 10:06:44;;;;;;;44.08;8.27;;;8.70;99.90;;;;;;5129735;27;20491;-52
2022/12/24 10:09:30;;;;;;;52.28;9.93;;;8.50;99.90;;;;;;5132102;27;20043;-50
2022/12/24 10:12:12;;;;;;;48.70;9.30;;;8.50;99.90;;;;;;5114194;27;20130;-48
2022/12/24 10:14:57;;;;;;;52.78;9.63;;;8.80;99.90;;;;;;5128849;27;20043;-51
2022/12/24 10:17:35;;;;;;;49.50;9.20;;;8.50;99.90;;;;;;5025255;28;20050;-47
2022/12/24 10:20:15;;;;;;;52.63;9.80;;;8.50;99.90;;;;;;5012919;28;20530;-52
2022/12/24 10:22:50;;;;;;;55.10;9.57;;;8.50;99.90;;;;;;4996441;28;20096;-48
2022/12/24 10:25:31;;;;;;;56.38;9.38;;;8.70;99.90;;;;;;5012162;28;20578;-51
2022/12/24 10:28:01;;;;;;;53.58;10.07;;;8.70;99.90;;;;;;4996688;28;20120;-53
2022/12/24 10:30:27;;;;;;;46.95;8.00;;;8.80;99.90;;;;;;5022420;28;20947;-50
2022/12/24 10:32:54;;;;;;;50.00;8.32;;;8.80;99.90;;;;;;5016982;28;20041;-48
2022/12/24 10:35:25;;;;;;;49.42;8.27;;;8.80;99.90;;;;;;5021041;28;20067;-53
2022/12/24 10:37:51;;;;;;;43.55;8.93;;;8.60;99.90;;;;;;5016521;28;20651;-55
2022/12/24 10:40:27;;;;;;;50.60;9.05;;;8.60;99.90;;;;;;5013251;28;20099;-50
2022/12/24 10:42:53;;;;;;;44.75;8.65;;;8.60;99.90;;;;;;5016848;28;20041;-49
2022/12/24 10:45:24;;;;;;;40.28;7.20;;;8.70;99.90;;;;;;5032636;28;20412;-47
2022/12/24 10:47:56;;;;;;;38.85;7.45;;;8.80;99.90;;;;;;5019598;28;20061;-52
2022/12/24 10:50:34;;;;;;;55.40;8.45;;;8.70;99.90;;;;;;5032797;28;20044;-49
2022/12/24 10:53:22;;;;;;;45.05;7.68;;;8.80;99.90;;;;;;5012833;28;20529;-51
2022/12/24 10:55:48;;;;;;;42.95;6.80;;;8.80;99.90;;;;;;5124199;27;20045;-52
2022/12/24 10:58:20;;;;;;;44.00;8.32;;;8.70;99.90;;;;;;5117119;27;20031;-53
2022/12/24 11:00:50;;;;;;;46.97;7.80;;;8.70;99.90;;;;;;5102575;27;20556;-52
2022/12/24 11:03:29;;;;;;;47.65;8.57;;;8.80;99.90;;;;;;5117439;27;20131;-50
2022/12/24 11:06:03;;;;;;;42.85;7.68;;;8.70;99.90;;;;;;5122559;27;20038;-55
2022/12/24 11:08:29;;;;;;;39.05;7.32;;;8.80;99.90;;;;;;5123572;27;20087;-49
2022/12/24 11:10:59;;;;;;;37.13;7.32;;;8.80;99.90;;;;;;5129452;27;20051;-51
2022/12/24 11:13:25;;;;;;;40.90;7.72;;;8.80;99.90;;;;;;5131628;27;20532;-51
2022/12/24 11:16:01;;;;;;;41.22;7.93;;;8.90;99.90;;;;;;5116455;27;20699;-49
2022/12/24 11:18:27;;;;;;;35.33;6.70;;;8.90;99.90;;;;;;5134165;27;20093;-51
2022/12/24 11:20:53;;;;;;;45.75;7.47;;;8.80;99.90;;;;;;5126253;27;20146;-50
2022/12/24 11:23:19;;;;;;;34.85;7.78;;;8.80;99.90;;;;;;5116327;27;20485;-48
2022/12/24 11:25:50;;;;;;;39.42;8.82;;;8.90;99.90;;;;;;5116423;27;20164;-49
2022/12/24 11:28:25;;;;;;;41.38;7.65;;;8.90;99.90;;;;;;5134756;27;20038;-47
2022/12/24 11:31:21;;;;;;;43.35;7.07;;;9.00;99.90;;;;;;5118127;27;20055;-52
2022/12/24 11:33:54;;;;;;;38.35;8.13;;;9.10;99.90;;;;;;5115695;27;20054;-52
2022/12/24 11:36:22;;;;;;;35.42;6.03;;;8.90;99.90;;;;;;5131152;27;20513;-56
2022/12/24 11:38:53;;;;;;;30.75;5.90;;;9.10;99.90;;;;;;5115647;27;20457;-49
2022/12/24 11:41:19;;;;;;;30.00;6.55;;;9.20;99.90;;;;;;5130115;27;20043;-46
2022/12/24 11:43:50;;;;;;;29.08;6.75;;;9.00;99.90;;;;;;5128035;27;20428;-52
2022/12/24 11:46:35;;;;;;;35.85;7.25;;;9.10;99.90;;;;;;5132816;27;20039;-53
2022/12/24 11:49:36;;;;;;;32.47;6.88;;;9.10;99.90;;;;;;5096515;27;20485;-52
2022/12/24 11:52:11;;;;;;;35.45;7.90;;;9.10;99.90;;;;;;5013126;28;20514;-52
2022/12/24 11:54:54;;;;;;;34.40;6.47;;;9.20;99.90;;;;;;5004673;28;20060;-55
2022/12/24 11:57:24;;;;;;;41.30;6.80;;;9.10;99.90;;;;;;5017093;28;20424;-55
2022/12/24 11:59:51;;;;;;;42.38;7.18;;;9.10;99.90;;;;;;5028899;28;20049;-49
2022/12/24 12:02:23;;;;;;;31.23;6.32;;;9.10;99.90;;;;;;5027958;28;20049;-52
2022/12/24 12:05:03;;;;;;;34.20;6.88;;;9.00;99.90;;;;;;5027909;28;20602;-55
2022/12/24 12:07:35;;;;;;;36.70;7.38;;;9.10;99.90;;;;;;5028712;28;20053;-48
2022/12/24 12:10:22;;;;;;;43.55;8.52;;;8.90;99.90;;;;;;5022474;28;20057;-50
2022/12/24 12:13:13;;;;;;;37.63;7.38;;;8.90;99.90;;;;;;4985420;28;20100;-51
2022/12/24 12:16:04;;;;;;;37.85;7.60;;;8.80;99.90;;;;;;5004928;28;20179;-49
2022/12/24 12:18:45;;;;;;;35.00;6.80;;;8.90;99.90;;;;;;5018887;28;20052;-50
2022/12/24 12:21:38;;;;;;;34.25;7.63;;;8.90;99.90;;;;;;4998041;28;20068;-51
2022/12/24 12:24:18;;;;;;;32.30;6.43;;;9.00;99.90;;;;;;4965545;28;20062;-51
2022/12/24 12:26:45;;;;;;;37.30;6.45;;;8.90;99.90;;;;;;5032507;28;20079;-49
2022/12/24 12:29:32;;;;;;;38.92;5.90;;;8.90;99.90;;;;;;5047319;28;20047;-52
2022/12/24 12:32:09;;;;;;;46.92;6.45;;;8.90;99.90;;;;;;5056843;28;20098;-49
2022/12/24 12:34:42;;;;;;;35.65;8.07;;;8.90;99.90;;;;;;5046997;28;20158;-52
2022/12/24 12:37:24;;;;;;;28.17;5.57;;;8.90;99.90;;;;;;5052015;28;20058;-53
2022/12/24 12:39:50;;;;;;;43.58;7.35;;;8.80;99.90;;;;;;5034793;28;20350;-50
2022/12/24 12:42:34;;;;;;;37.97;7.30;;;8.90;99.90;;;;;;5049206;28;20761;-52
2022/12/24 12:45:33;;;;;;;34.35;5.80;;;9.00;99.90;;;;;;5040713;28;20242;-55
2022/12/24 12:48:36;;;;;;;35.92;6.35;;;8.90;99.90;;;;;;5063290;28;20052;-49
2022/12/24 12:51:09;;;;;;;36.28;7.10;;;8.90;99.90;;;;;;5065952;28;20399;-52
2022/12/24 12:53:57;;;;;;;39.97;8.10;;;9.10;99.90;;;;;;5063279;28;20064;-48
2022/12/24 12:56:32;;;;;;;37.40;6.55;;;8.90;99.90;;;;;;5066101;28;20054;-48
2022/12/24 12:59:31;;;;;;;34.90;6.50;;;9.00;99.90;;;;;;5068009;28;20048;-53
2022/12/24 13:02:20;;;;;;;33.75;5.63;;;9.10;99.90;;;;;;5107488;27;20054;-46
2022/12/24 13:04:57;;;;;;;36.08;5.50;;;9.00;99.90;;;;;;5133228;27;20478;-49